sensor_id;sensor_type;location;lat;lon;timestamp;P1;durP1;ratioP1;P2;durP2;ratioP2
37693;SDS011;23531;50.122;8.644;2022-08-18T02:02:29;10.50;;;9.55;;
37693;SDS011;23531;50.122;8.644;2022-08-18T02:04:33;14.90;;;10.35;;
37693;SDS011;23531;50.122;8.644;2022-08-18T02:06:35;10.82;;;9.80;;
37693;SDS011;23531;50.122;8.644;2022-08-18T02:08:37;12.13;;;10.13;;
37693;SDS011;23531;50.122;8.644;2022-08-18T02:10:38;11.52;;;10.18;;
37693;SDS011;23531;50.122;8.644;2022-08-18T02:12:40;10.05;;;8.93;;
37693;SDS011;23531;50.122;8.644;2022-08-18T02:14:42;10.85;;;9.77;;
37693;SDS011;23531;50.122;8.644;2022-08-18T02:16:44;12.40;;;10.75;;
37693;SDS011;23531;50.122;8.644;2022-08-18T02:18:47;11.05;;;9.95;;
37693;SDS011;23531;50.122;8.644;2022-08-18T02:20:48;11.55;;;10.18;;
37693;SDS011;23531;50.122;8.644;2022-08-18T02:22:51;13.35;;;10.48;;
37693;SDS011;23531;50.122;8.644;2022-08-18T02:24:53;16.27;;;10.88;;
37693;SDS011;23531;50.122;8.644;2022-08-18T02:26:56;12.10;;;10.73;;
37693;SDS011;23531;50.122;8.644;2022-08-18T02:28:58;11.50;;;10.27;;
37693;SDS011;23531;50.122;8.644;2022-08-18T02:31:02;10.63;;;9.40;;
37693;SDS011;23531;50.122;8.644;2022-08-18T02:33:04;11.27;;;10.18;;
37693;SDS011;23531;50.122;8.644;2022-08-18T02:35:08;10.57;;;9.50;;
37693;SDS011;23531;50.122;8.644;2022-08-18T02:37:11;13.40;;;9.93;;
37693;SDS011;23531;50.122;8.644;2022-08-18T02:39:13;10.90;;;9.60;;
37693;SDS011;23531;50.122;8.644;2022-08-18T02:41:14;12.27;;;9.15;;
37693;SDS011;23531;50.122;8.644;2022-08-18T02:43:16;10.77;;;9.70;;
37693;SDS011;23531;50.122;8.644;2022-08-18T02:45:17;13.48;;;9.15;;
37693;SDS011;23531;50.122;8.644;2022-08-18T02:47:19;10.25;;;9.02;;
37693;SDS011;23531;50.122;8.644;2022-08-18T02:49:21;10.93;;;9.30;;
37693;SDS011;23531;50.122;8.644;2022-08-18T02:51:23;14.82;;;9.25;;
37693;SDS011;23531;50.122;8.644;2022-08-18T02:53:25;10.43;;;9.30;;
37693;SDS011;23531;50.122;8.644;2022-08-18T02:55:27;10.77;;;9.63;;
37693;SDS011;23531;50.122;8.644;2022-08-18T02:57:29;9.68;;;8.60;;
37693;SDS011;23531;50.122;8.644;2022-08-18T02:59:31;10.43;;;9.25;;
37693;SDS011;23531;50.122;8.644;2022-08-18T03:01:33;10.32;;;9.13;;
37693;SDS011;23531;50.122;8.644;2022-08-18T03:03:37;10.35;;;9.35;;
37693;SDS011;23531;50.122;8.644;2022-08-18T03:05:38;12.05;;;9.55;;
37693;SDS011;23531;50.122;8.644;2022-08-18T03:07:41;11.50;;;8.82;;
37693;SDS011;23531;50.122;8.644;2022-08-18T03:09:42;10.35;;;9.35;;
37693;SDS011;23531;50.122;8.644;2022-08-18T03:11:44;13.63;;;9.27;;
37693;SDS011;23531;50.122;8.644;2022-08-18T03:13:46;12.23;;;9.55;;
37693;SDS011;23531;50.122;8.644;2022-08-18T03:15:47;11.55;;;10.35;;
37693;SDS011;23531;50.122;8.644;2022-08-18T03:17:49;13.35;;;9.40;;
37693;SDS011;23531;50.122;8.644;2022-08-18T03:19:51;10.55;;;9.45;;
37693;SDS011;23531;50.122;8.644;2022-08-18T03:21:53;11.55;;;9.15;;
37693;SDS011;23531;50.122;8.644;2022-08-18T03:23:56;11.02;;;9.65;;
37693;SDS011;23531;50.122;8.644;2022-08-18T03:25:58;10.50;;;9.25;;
37693;SDS011;23531;50.122;8.644;2022-08-18T03:28:01;10.10;;;9.15;;
37693;SDS011;23531;50.122;8.644;2022-08-18T03:30:03;10.18;;;9.20;;
37693;SDS011;23531;50.122;8.644;2022-08-18T03:32:05;11.43;;;8.75;;
37693;SDS011;23531;50.122;8.644;2022-08-18T03:34:07;14.88;;;9.93;;
37693;SDS011;23531;50.122;8.644;2022-08-18T03:36:10;10.30;;;9.25;;
37693;SDS011;23531;50.122;8.644;2022-08-18T03:38:13;12.85;;;9.48;;
37693;SDS011;23531;50.122;8.644;2022-08-18T03:40:16;11.20;;;9.35;;
37693;SDS011;23531;50.122;8.644;2022-08-18T03:42:17;10.68;;;9.57;;
37693;SDS011;23531;50.122;8.644;2022-08-18T03:44:19;10.43;;;9.32;;
37693;SDS011;23531;50.122;8.644;2022-08-18T03:46:22;12.18;;;9.98;;
37693;SDS011;23531;50.122;8.644;2022-08-18T03:48:24;12.57;;;9.52;;
37693;SDS011;23531;50.122;8.644;2022-08-18T03:50:25;11.82;;;9.20;;
37693;SDS011;23531;50.122;8.644;2022-08-18T03:52:27;13.13;;;9.60;;
37693;SDS011;23531;50.122;8.644;2022-08-18T03:54:29;12.50;;;9.30;;
37693;SDS011;23531;50.122;8.644;2022-08-18T03:56:34;15.18;;;10.32;;
37693;SDS011;23531;50.122;8.644;2022-08-18T03:58:37;10.95;;;9.68;;
37693;SDS011;23531;50.122;8.644;2022-08-18T04:00:39;12.25;;;10.45;;
37693;SDS011;23531;50.122;8.644;2022-08-18T04:02:41;10.43;;;9.30;;
37693;SDS011;23531;50.122;8.644;2022-08-18T04:04:43;11.93;;;9.73;;
37693;SDS011;23531;50.122;8.644;2022-08-18T04:06:46;11.70;;;9.45;;
37693;SDS011;23531;50.122;8.644;2022-08-18T04:08:50;10.75;;;9.65;;
37693;SDS011;23531;50.122;8.644;2022-08-18T04:10:51;10.52;;;9.43;;
37693;SDS011;23531;50.122;8.644;2022-08-18T04:12:54;10.52;;;9.25;;
37693;SDS011;23531;50.122;8.644;2022-08-18T04:14:56;11.15;;;10.00;;
37693;SDS011;23531;50.122;8.644;2022-08-18T04:16:57;11.00;;;9.43;;
37693;SDS011;23531;50.122;8.644;2022-08-18T04:18:59;11.23;;;9.60;;
37693;SDS011;23531;50.122;8.644;2022-08-18T04:21:02;12.35;;;9.65;;
37693;SDS011;23531;50.122;8.644;2022-08-18T04:23:06;13.25;;;9.55;;
37693;SDS011;23531;50.122;8.644;2022-08-18T04:25:08;11.20;;;9.88;;
37693;SDS011;23531;50.122;8.644;2022-08-18T04:27:09;10.50;;;9.18;;
37693;SDS011;23531;50.122;8.644;2022-08-18T04:29:13;10.02;;;8.82;;
37693;SDS011;23531;50.122;8.644;2022-08-18T04:31:17;9.82;;;8.82;;
37693;SDS011;23531;50.122;8.644;2022-08-18T04:33:22;11.55;;;8.80;;
37693;SDS011;23531;50.122;8.644;2022-08-18T04:35:24;10.35;;;8.70;;
37693;SDS011;23531;50.122;8.644;2022-08-18T04:37:28;10.20;;;9.13;;
37693;SDS011;23531;50.122;8.644;2022-08-18T04:39:31;12.98;;;9.43;;
37693;SDS011;23531;50.122;8.644;2022-08-18T04:41:33;10.40;;;8.70;;
37693;SDS011;23531;50.122;8.644;2022-08-18T04:43:35;12.30;;;9.05;;
37693;SDS011;23531;50.122;8.644;2022-08-18T04:45:38;9.57;;;8.48;;
37693;SDS011;23531;50.122;8.644;2022-08-18T04:47:39;10.95;;;9.23;;
37693;SDS011;23531;50.122;8.644;2022-08-18T04:49:42;12.57;;;9.13;;
37693;SDS011;23531;50.122;8.644;2022-08-18T04:51:44;12.52;;;8.85;;
37693;SDS011;23531;50.122;8.644;2022-08-18T04:54:07;10.43;;;8.77;;
37693;SDS011;23531;50.122;8.644;2022-08-18T04:56:08;15.38;;;10.40;;
37693;SDS011;23531;50.122;8.644;2022-08-18T04:58:09;9.50;;;8.48;;
37693;SDS011;23531;50.122;8.644;2022-08-18T05:00:10;10.30;;;8.75;;
37693;SDS011;23531;50.122;8.644;2022-08-18T05:02:15;11.00;;;9.50;;
37693;SDS011;23531;50.122;8.644;2022-08-18T05:04:17;14.48;;;9.88;;
37693;SDS011;23531;50.122;8.644;2022-08-18T05:06:19;11.32;;;9.27;;
37693;SDS011;23531;50.122;8.644;2022-08-18T05:08:25;12.60;;;8.52;;
37693;SDS011;23531;50.122;8.644;2022-08-18T05:10:26;9.70;;;8.70;;
37693;SDS011;23531;50.122;8.644;2022-08-18T05:12:28;12.18;;;8.38;;
37693;SDS011;23531;50.122;8.644;2022-08-18T05:14:29;32.30;;;11.35;;
37693;SDS011;23531;50.122;8.644;2022-08-18T05:16:31;21.38;;;10.65;;
37693;SDS011;23531;50.122;8.644;2022-08-18T05:18:36;21.90;;;9.32;;
37693;SDS011;23531;50.122;8.644;2022-08-18T05:20:39;18.48;;;9.00;;
37693;SDS011;23531;50.122;8.644;2022-08-18T05:22:42;11.43;;;7.82;;
37693;SDS011;23531;50.122;8.644;2022-08-18T05:24:44;10.15;;;8.45;;
37693;SDS011;23531;50.122;8.644;2022-08-18T05:26:46;14.27;;;8.77;;
37693;SDS011;23531;50.122;8.644;2022-08-18T05:28:48;13.27;;;8.80;;
37693;SDS011;23531;50.122;8.644;2022-08-18T05:30:49;10.00;;;8.63;;
37693;SDS011;23531;50.122;8.644;2022-08-18T05:32:50;10.82;;;8.13;;
37693;SDS011;23531;50.122;8.644;2022-08-18T05:34:53;10.25;;;8.00;;
37693;SDS011;23531;50.122;8.644;2022-08-18T05:36:57;11.98;;;8.68;;
37693;SDS011;23531;50.122;8.644;2022-08-18T05:39:09;11.30;;;8.85;;
37693;SDS011;23531;50.122;8.644;2022-08-18T05:43:20;10.63;;;8.68;;
37693;SDS011;23531;50.122;8.644;2022-08-18T05:45:22;16.83;;;14.90;;
37693;SDS011;23531;50.122;8.644;2022-08-18T05:47:24;12.80;;;9.73;;
37693;SDS011;23531;50.122;8.644;2022-08-18T05:49:28;10.65;;;8.45;;
37693;SDS011;23531;50.122;8.644;2022-08-18T05:51:33;15.88;;;7.88;;
37693;SDS011;23531;50.122;8.644;2022-08-18T05:53:39;9.57;;;7.80;;
37693;SDS011;23531;50.122;8.644;2022-08-18T05:56:00;13.05;;;9.90;;
37693;SDS011;23531;50.122;8.644;2022-08-18T05:58:23;10.55;;;8.73;;
37693;SDS011;23531;50.122;8.644;2022-08-18T06:00:26;10.50;;;9.23;;
37693;SDS011;23531;50.122;8.644;2022-08-18T06:02:31;16.13;;;9.07;;
37693;SDS011;23531;50.122;8.644;2022-08-18T06:04:39;10.10;;;9.10;;
37693;SDS011;23531;50.122;8.644;2022-08-18T06:06:45;15.55;;;11.18;;
37693;SDS011;23531;50.122;8.644;2022-08-18T06:08:49;18.33;;;13.40;;
37693;SDS011;23531;50.122;8.644;2022-08-18T06:11:04;11.20;;;9.00;;
37693;SDS011;23531;50.122;8.644;2022-08-18T06:13:07;10.60;;;9.43;;
37693;SDS011;23531;50.122;8.644;2022-08-18T06:15:12;11.52;;;8.80;;
37693;SDS011;23531;50.122;8.644;2022-08-18T06:20:07;11.45;;;9.55;;
37693;SDS011;23531;50.122;8.644;2022-08-18T06:22:22;15.23;;;9.13;;
37693;SDS011;23531;50.122;8.644;2022-08-18T06:24:35;16.73;;;9.50;;
37693;SDS011;23531;50.122;8.644;2022-08-18T06:26:43;15.35;;;10.75;;
37693;SDS011;23531;50.122;8.644;2022-08-18T06:28:53;13.30;;;9.07;;
37693;SDS011;23531;50.122;8.644;2022-08-18T06:31:02;13.73;;;8.95;;
37693;SDS011;23531;50.122;8.644;2022-08-18T06:33:15;10.63;;;9.10;;
37693;SDS011;23531;50.122;8.644;2022-08-18T06:35:33;11.15;;;9.20;;
37693;SDS011;23531;50.122;8.644;2022-08-18T06:37:44;10.63;;;8.98;;
37693;SDS011;23531;50.122;8.644;2022-08-18T06:40:05;11.90;;;8.98;;
37693;SDS011;23531;50.122;8.644;2022-08-18T06:42:07;11.15;;;9.13;;
37693;SDS011;23531;50.122;8.644;2022-08-18T06:44:09;9.88;;;8.52;;
37693;SDS011;23531;50.122;8.644;2022-08-18T06:46:20;12.73;;;9.55;;
37693;SDS011;23531;50.122;8.644;2022-08-18T06:48:25;10.50;;;9.50;;
37693;SDS011;23531;50.122;8.644;2022-08-18T06:50:33;14.50;;;9.40;;
37693;SDS011;23531;50.122;8.644;2022-08-18T06:52:51;14.38;;;9.10;;
37693;SDS011;23531;50.122;8.644;2022-08-18T06:54:55;14.07;;;10.10;;
37693;SDS011;23531;50.122;8.644;2022-08-18T06:56:58;10.63;;;9.57;;
37693;SDS011;23531;50.122;8.644;2022-08-18T06:59:17;20.50;;;13.27;;
37693;SDS011;23531;50.122;8.644;2022-08-18T07:01:22;11.63;;;9.95;;
37693;SDS011;23531;50.122;8.644;2022-08-18T07:03:39;13.45;;;9.88;;
37693;SDS011;23531;50.122;8.644;2022-08-18T07:05:55;15.02;;;9.85;;
37693;SDS011;23531;50.122;8.644;2022-08-18T07:08:05;15.05;;;10.10;;
37693;SDS011;23531;50.122;8.644;2022-08-18T07:10:27;14.18;;;12.05;;
37693;SDS011;23531;50.122;8.644;2022-08-18T07:12:32;13.95;;;10.57;;
37693;SDS011;23531;50.122;8.644;2022-08-18T07:14:40;12.43;;;10.52;;
37693;SDS011;23531;50.122;8.644;2022-08-18T07:16:44;18.25;;;11.18;;
37693;SDS011;23531;50.122;8.644;2022-08-18T07:18:45;13.45;;;10.25;;
37693;SDS011;23531;50.122;8.644;2022-08-18T07:20:47;16.13;;;10.85;;
37693;SDS011;23531;50.122;8.644;2022-08-18T07:22:54;18.73;;;11.02;;
37693;SDS011;23531;50.122;8.644;2022-08-18T07:24:58;12.07;;;10.40;;
37693;SDS011;23531;50.122;8.644;2022-08-18T07:27:05;16.80;;;11.30;;
37693;SDS011;23531;50.122;8.644;2022-08-18T07:29:11;14.00;;;10.90;;
37693;SDS011;23531;50.122;8.644;2022-08-18T07:33:36;16.63;;;11.13;;
37693;SDS011;23531;50.122;8.644;2022-08-18T07:35:42;13.05;;;11.65;;
37693;SDS011;23531;50.122;8.644;2022-08-18T07:39:54;14.13;;;10.35;;
37693;SDS011;23531;50.122;8.644;2022-08-18T07:42:02;17.77;;;11.57;;
37693;SDS011;23531;50.122;8.644;2022-08-18T07:44:13;14.18;;;10.80;;
37693;SDS011;23531;50.122;8.644;2022-08-18T07:46:21;15.05;;;10.40;;
37693;SDS011;23531;50.122;8.644;2022-08-18T07:48:29;15.95;;;10.45;;
37693;SDS011;23531;50.122;8.644;2022-08-18T07:50:33;14.40;;;10.38;;
37693;SDS011;23531;50.122;8.644;2022-08-18T07:52:43;12.73;;;10.30;;
37693;SDS011;23531;50.122;8.644;2022-08-18T07:54:54;19.13;;;10.15;;
37693;SDS011;23531;50.122;8.644;2022-08-18T07:57:03;15.45;;;10.32;;
37693;SDS011;23531;50.122;8.644;2022-08-18T07:59:14;13.15;;;10.30;;
37693;SDS011;23531;50.122;8.644;2022-08-18T08:01:22;16.27;;;10.65;;
37693;SDS011;23531;50.122;8.644;2022-08-18T08:03:35;14.05;;;10.23;;
37693;SDS011;23531;50.122;8.644;2022-08-18T08:05:46;10.65;;;9.55;;
37693;SDS011;23531;50.122;8.644;2022-08-18T08:07:55;11.27;;;10.10;;
37693;SDS011;23531;50.122;8.644;2022-08-18T08:10:02;13.27;;;10.95;;
37693;SDS011;23531;50.122;8.644;2022-08-18T08:12:31;12.27;;;9.73;;
37693;SDS011;23531;50.122;8.644;2022-08-18T08:14:42;14.15;;;10.00;;
37693;SDS011;23531;50.122;8.644;2022-08-18T08:16:46;13.57;;;10.73;;
37693;SDS011;23531;50.122;8.644;2022-08-18T08:18:52;14.48;;;10.77;;
37693;SDS011;23531;50.122;8.644;2022-08-18T08:21:01;16.38;;;11.25;;
37693;SDS011;23531;50.122;8.644;2022-08-18T08:23:12;15.57;;;11.05;;
37693;SDS011;23531;50.122;8.644;2022-08-18T08:25:23;14.52;;;10.95;;
37693;SDS011;23531;50.122;8.644;2022-08-18T08:27:29;17.27;;;11.52;;
37693;SDS011;23531;50.122;8.644;2022-08-18T08:29:43;14.95;;;10.77;;
37693;SDS011;23531;50.122;8.644;2022-08-18T08:31:51;23.92;;;17.60;;
37693;SDS011;23531;50.122;8.644;2022-08-18T08:34:02;14.68;;;11.20;;
37693;SDS011;23531;50.122;8.644;2022-08-18T08:36:11;18.67;;;11.85;;
37693;SDS011;23531;50.122;8.644;2022-08-18T08:38:18;15.13;;;12.30;;
37693;SDS011;23531;50.122;8.644;2022-08-18T08:40:25;16.60;;;12.13;;
37693;SDS011;23531;50.122;8.644;2022-08-18T08:44:54;15.13;;;11.60;;
37693;SDS011;23531;50.122;8.644;2022-08-18T08:47:02;17.83;;;11.95;;
37693;SDS011;23531;50.122;8.644;2022-08-18T08:49:08;15.85;;;11.15;;
37693;SDS011;23531;50.122;8.644;2022-08-18T08:51:27;17.15;;;11.45;;
37693;SDS011;23531;50.122;8.644;2022-08-18T08:55:40;15.18;;;12.27;;
37693;SDS011;23531;50.122;8.644;2022-08-18T08:57:47;15.80;;;12.98;;
37693;SDS011;23531;50.122;8.644;2022-08-18T08:59:54;17.75;;;13.10;;
37693;SDS011;23531;50.122;8.644;2022-08-18T09:02:02;17.08;;;13.45;;
37693;SDS011;23531;50.122;8.644;2022-08-18T09:04:23;17.83;;;14.05;;
37693;SDS011;23531;50.122;8.644;2022-08-18T09:06:35;18.73;;;13.68;;
37693;SDS011;23531;50.122;8.644;2022-08-18T09:08:54;14.48;;;12.85;;
37693;SDS011;23531;50.122;8.644;2022-08-18T09:11:22;16.67;;;13.00;;
37693;SDS011;23531;50.122;8.644;2022-08-18T09:13:43;18.08;;;13.88;;
37693;SDS011;23531;50.122;8.644;2022-08-18T09:16:03;15.80;;;13.00;;
37693;SDS011;23531;50.122;8.644;2022-08-18T09:18:18;20.17;;;14.50;;
37693;SDS011;23531;50.122;8.644;2022-08-18T09:20:36;18.73;;;15.70;;
37693;SDS011;23531;50.122;8.644;2022-08-18T09:22:50;23.67;;;16.38;;
37693;SDS011;23531;50.122;8.644;2022-08-18T09:24:53;21.60;;;16.55;;
37693;SDS011;23531;50.122;8.644;2022-08-18T09:27:10;22.92;;;16.05;;
37693;SDS011;23531;50.122;8.644;2022-08-18T09:29:17;18.83;;;15.48;;
37693;SDS011;23531;50.122;8.644;2022-08-18T09:31:23;18.73;;;16.50;;
37693;SDS011;23531;50.122;8.644;2022-08-18T09:33:31;18.40;;;16.20;;
37693;SDS011;23531;50.122;8.644;2022-08-18T09:35:51;21.67;;;15.35;;
37693;SDS011;23531;50.122;8.644;2022-08-18T09:38:07;20.52;;;17.85;;
37693;SDS011;23531;50.122;8.644;2022-08-18T09:40:31;20.60;;;16.45;;
37693;SDS011;23531;50.122;8.644;2022-08-18T09:42:53;19.70;;;16.52;;
37693;SDS011;23531;50.122;8.644;2022-08-18T09:45:01;19.77;;;15.05;;
37693;SDS011;23531;50.122;8.644;2022-08-18T09:47:06;23.20;;;15.32;;
37693;SDS011;23531;50.122;8.644;2022-08-18T09:51:39;22.55;;;18.50;;
37693;SDS011;23531;50.122;8.644;2022-08-18T09:53:53;22.15;;;16.75;;
37693;SDS011;23531;50.122;8.644;2022-08-18T09:56:11;21.25;;;17.63;;
37693;SDS011;23531;50.122;8.644;2022-08-18T09:58:14;21.88;;;16.70;;
37693;SDS011;23531;50.122;8.644;2022-08-18T10:00:28;26.05;;;18.90;;
37693;SDS011;23531;50.122;8.644;2022-08-18T10:05:25;22.38;;;16.88;;
37693;SDS011;23531;50.122;8.644;2022-08-18T10:09:33;21.42;;;16.73;;
37693;SDS011;23531;50.122;8.644;2022-08-18T10:11:47;22.10;;;18.10;;
37693;SDS011;23531;50.122;8.644;2022-08-18T10:14:22;23.60;;;18.50;;
37693;SDS011;23531;50.122;8.644;2022-08-18T10:16:44;26.83;;;21.95;;
37693;SDS011;23531;50.122;8.644;2022-08-18T10:18:56;34.25;;;24.55;;
37693;SDS011;23531;50.122;8.644;2022-08-18T10:21:10;25.30;;;21.48;;
37693;SDS011;23531;50.122;8.644;2022-08-18T10:25:45;20.17;;;17.73;;
37693;SDS011;23531;50.122;8.644;2022-08-18T10:27:49;20.88;;;18.48;;
37693;SDS011;23531;50.122;8.644;2022-08-18T10:29:54;27.75;;;20.40;;
37693;SDS011;23531;50.122;8.644;2022-08-18T10:32:17;22.30;;;19.15;;
37693;SDS011;23531;50.122;8.644;2022-08-18T10:34:36;20.60;;;18.40;;
37693;SDS011;23531;50.122;8.644;2022-08-18T10:36:49;21.70;;;19.35;;
37693;SDS011;23531;50.122;8.644;2022-08-18T10:38:53;23.05;;;20.05;;
37693;SDS011;23531;50.122;8.644;2022-08-18T10:40:57;22.42;;;20.02;;
37693;SDS011;23531;50.122;8.644;2022-08-18T10:43:06;22.52;;;19.40;;
37693;SDS011;23531;50.122;8.644;2022-08-18T10:45:11;26.35;;;19.08;;
37693;SDS011;23531;50.122;8.644;2022-08-18T10:47:21;20.52;;;18.00;;
37693;SDS011;23531;50.122;8.644;2022-08-18T10:49:25;23.42;;;20.23;;
37693;SDS011;23531;50.122;8.644;2022-08-18T10:51:45;25.67;;;19.23;;
37693;SDS011;23531;50.122;8.644;2022-08-18T10:54:09;23.83;;;19.98;;
37693;SDS011;23531;50.122;8.644;2022-08-18T10:56:20;22.67;;;19.10;;
37693;SDS011;23531;50.122;8.644;2022-08-18T11:01:06;25.35;;;20.13;;
37693;SDS011;23531;50.122;8.644;2022-08-18T11:03:21;23.98;;;20.23;;
37693;SDS011;23531;50.122;8.644;2022-08-18T11:05:33;24.20;;;18.52;;
37693;SDS011;23531;50.122;8.644;2022-08-18T11:07:35;21.88;;;19.40;;
37693;SDS011;23531;50.122;8.644;2022-08-18T11:09:42;20.40;;;18.23;;
37693;SDS011;23531;50.122;8.644;2022-08-18T11:11:43;21.90;;;19.45;;
37693;SDS011;23531;50.122;8.644;2022-08-18T11:13:48;23.70;;;19.77;;
37693;SDS011;23531;50.122;8.644;2022-08-18T11:16:01;22.70;;;19.50;;
37693;SDS011;23531;50.122;8.644;2022-08-18T11:18:13;22.73;;;19.05;;
37693;SDS011;23531;50.122;8.644;2022-08-18T11:20:28;22.02;;;18.00;;
37693;SDS011;23531;50.122;8.644;2022-08-18T11:22:32;21.65;;;18.95;;
37693;SDS011;23531;50.122;8.644;2022-08-18T11:24:34;23.42;;;19.17;;
37693;SDS011;23531;50.122;8.644;2022-08-18T11:26:45;22.83;;;20.38;;
37693;SDS011;23531;50.122;8.644;2022-08-18T11:28:48;24.00;;;18.95;;
37693;SDS011;23531;50.122;8.644;2022-08-18T11:30:50;25.50;;;21.30;;
37693;SDS011;23531;50.122;8.644;2022-08-18T11:32:54;27.05;;;22.27;;
37693;SDS011;23531;50.122;8.644;2022-08-18T11:35:00;29.52;;;22.35;;
37693;SDS011;23531;50.122;8.644;2022-08-18T11:37:06;25.27;;;20.75;;
37693;SDS011;23531;50.122;8.644;2022-08-18T11:39:09;24.52;;;20.83;;
37693;SDS011;23531;50.122;8.644;2022-08-18T11:41:12;23.50;;;20.75;;
37693;SDS011;23531;50.122;8.644;2022-08-18T11:43:18;24.88;;;19.75;;
37693;SDS011;23531;50.122;8.644;2022-08-18T11:45:25;22.08;;;19.83;;
37693;SDS011;23531;50.122;8.644;2022-08-18T11:47:32;23.95;;;20.35;;
37693;SDS011;23531;50.122;8.644;2022-08-18T11:49:37;28.15;;;20.90;;
37693;SDS011;23531;50.122;8.644;2022-08-18T11:51:55;24.13;;;19.75;;
37693;SDS011;23531;50.122;8.644;2022-08-18T11:53:59;25.23;;;18.65;;
37693;SDS011;23531;50.122;8.644;2022-08-18T11:56:05;22.45;;;19.10;;
37693;SDS011;23531;50.122;8.644;2022-08-18T11:58:36;21.90;;;17.85;;
37693;SDS011;23531;50.122;8.644;2022-08-18T12:00:41;23.02;;;19.60;;
37693;SDS011;23531;50.122;8.644;2022-08-18T12:02:59;25.50;;;20.15;;
37693;SDS011;23531;50.122;8.644;2022-08-18T12:05:01;22.88;;;20.42;;
37693;SDS011;23531;50.122;8.644;2022-08-18T12:07:05;27.13;;;20.30;;
37693;SDS011;23531;50.122;8.644;2022-08-18T12:09:13;23.23;;;20.80;;
37693;SDS011;23531;50.122;8.644;2022-08-18T12:11:19;21.35;;;19.08;;
37693;SDS011;23531;50.122;8.644;2022-08-18T12:13:22;23.88;;;20.27;;
37693;SDS011;23531;50.122;8.644;2022-08-18T12:15:26;24.15;;;19.10;;
37693;SDS011;23531;50.122;8.644;2022-08-18T12:17:30;21.88;;;19.25;;
37693;SDS011;23531;50.122;8.644;2022-08-18T12:19:32;25.23;;;18.30;;
37693;SDS011;23531;50.122;8.644;2022-08-18T12:21:36;19.30;;;17.42;;
37693;SDS011;23531;50.122;8.644;2022-08-18T12:23:40;19.17;;;16.88;;
37693;SDS011;23531;50.122;8.644;2022-08-18T12:25:42;22.85;;;17.85;;
37693;SDS011;23531;50.122;8.644;2022-08-18T12:27:43;19.70;;;16.88;;
37693;SDS011;23531;50.122;8.644;2022-08-18T12:29:45;22.85;;;19.70;;
37693;SDS011;23531;50.122;8.644;2022-08-18T12:31:47;21.23;;;17.17;;
37693;SDS011;23531;50.122;8.644;2022-08-18T12:33:50;20.20;;;18.15;;
37693;SDS011;23531;50.122;8.644;2022-08-18T12:35:51;22.13;;;19.17;;
37693;SDS011;23531;50.122;8.644;2022-08-18T12:37:53;19.15;;;17.20;;
37693;SDS011;23531;50.122;8.644;2022-08-18T12:39:57;18.08;;;16.17;;
37693;SDS011;23531;50.122;8.644;2022-08-18T12:41:59;23.65;;;17.60;;
37693;SDS011;23531;50.122;8.644;2022-08-18T12:44:01;21.00;;;17.88;;
37693;SDS011;23531;50.122;8.644;2022-08-18T12:46:03;20.63;;;18.48;;
37693;SDS011;23531;50.122;8.644;2022-08-18T12:48:05;20.08;;;17.38;;
37693;SDS011;23531;50.122;8.644;2022-08-18T12:50:07;19.02;;;17.23;;
37693;SDS011;23531;50.122;8.644;2022-08-18T12:52:09;19.52;;;17.48;;
37693;SDS011;23531;50.122;8.644;2022-08-18T12:54:11;17.05;;;15.35;;
37693;SDS011;23531;50.122;8.644;2022-08-18T12:56:15;17.42;;;15.63;;
37693;SDS011;23531;50.122;8.644;2022-08-18T12:58:21;17.90;;;16.00;;
37693;SDS011;23531;50.122;8.644;2022-08-18T13:00:22;18.08;;;16.20;;
37693;SDS011;23531;50.122;8.644;2022-08-18T13:02:24;20.40;;;16.05;;
37693;SDS011;23531;50.122;8.644;2022-08-18T13:04:25;17.60;;;15.93;;
37693;SDS011;23531;50.122;8.644;2022-08-18T13:06:26;18.75;;;16.60;;
37693;SDS011;23531;50.122;8.644;2022-08-18T13:08:28;21.67;;;17.38;;
37693;SDS011;23531;50.122;8.644;2022-08-18T13:10:29;20.90;;;17.85;;
37693;SDS011;23531;50.122;8.644;2022-08-18T13:12:32;22.48;;;17.10;;
37693;SDS011;23531;50.122;8.644;2022-08-18T13:14:33;20.02;;;16.13;;
37693;SDS011;23531;50.122;8.644;2022-08-18T13:16:37;20.48;;;15.18;;
37693;SDS011;23531;50.122;8.644;2022-08-18T13:18:40;14.55;;;13.15;;
37693;SDS011;23531;50.122;8.644;2022-08-18T13:20:42;17.23;;;13.38;;
37693;SDS011;23531;50.122;8.644;2022-08-18T13:22:43;15.05;;;13.23;;
37693;SDS011;23531;50.122;8.644;2022-08-18T13:24:45;14.70;;;12.95;;
37693;SDS011;23531;50.122;8.644;2022-08-18T13:26:46;16.13;;;13.55;;
37693;SDS011;23531;50.122;8.644;2022-08-18T13:28:50;16.25;;;14.18;;
37693;SDS011;23531;50.122;8.644;2022-08-18T13:30:51;16.60;;;12.45;;
37693;SDS011;23531;50.122;8.644;2022-08-18T13:32:53;14.95;;;13.45;;
37693;SDS011;23531;50.122;8.644;2022-08-18T13:34:54;16.23;;;14.00;;
37693;SDS011;23531;50.122;8.644;2022-08-18T13:36:55;19.52;;;14.55;;
37693;SDS011;23531;50.122;8.644;2022-08-18T13:38:57;14.30;;;12.93;;
37693;SDS011;23531;50.122;8.644;2022-08-18T13:41:01;17.05;;;15.00;;
37693;SDS011;23531;50.122;8.644;2022-08-18T13:43:04;15.63;;;14.02;;
37693;SDS011;23531;50.122;8.644;2022-08-18T13:45:09;17.05;;;13.85;;
37693;SDS011;23531;50.122;8.644;2022-08-18T13:47:13;15.85;;;14.02;;
37693;SDS011;23531;50.122;8.644;2022-08-18T13:49:15;15.55;;;13.95;;
37693;SDS011;23531;50.122;8.644;2022-08-18T13:51:18;14.88;;;13.27;;
37693;SDS011;23531;50.122;8.644;2022-08-18T13:53:24;13.40;;;12.20;;
37693;SDS011;23531;50.122;8.644;2022-08-18T13:55:26;14.85;;;13.32;;
37693;SDS011;23531;50.122;8.644;2022-08-18T13:57:28;14.88;;;13.38;;
37693;SDS011;23531;50.122;8.644;2022-08-18T13:59:31;13.60;;;12.40;;
37693;SDS011;23531;50.122;8.644;2022-08-18T14:01:34;13.73;;;12.32;;
37693;SDS011;23531;50.122;8.644;2022-08-18T14:03:36;13.15;;;11.60;;
37693;SDS011;23531;50.122;8.644;2022-08-18T14:05:38;12.10;;;10.98;;
37693;SDS011;23531;50.122;8.644;2022-08-18T14:07:41;13.32;;;11.00;;
37693;SDS011;23531;50.122;8.644;2022-08-18T14:09:42;12.60;;;11.40;;
37693;SDS011;23531;50.122;8.644;2022-08-18T14:11:44;12.98;;;11.63;;
37693;SDS011;23531;50.122;8.644;2022-08-18T14:13:46;14.70;;;13.18;;
37693;SDS011;23531;50.122;8.644;2022-08-18T14:15:49;14.57;;;13.07;;
37693;SDS011;23531;50.122;8.644;2022-08-18T14:17:52;13.25;;;11.85;;
37693;SDS011;23531;50.122;8.644;2022-08-18T14:19:54;13.48;;;12.18;;
37693;SDS011;23531;50.122;8.644;2022-08-18T14:22:13;12.25;;;10.65;;
37693;SDS011;23531;50.122;8.644;2022-08-18T14:24:33;12.35;;;11.13;;
37693;SDS011;23531;50.122;8.644;2022-08-18T14:26:53;11.70;;;10.60;;
37693;SDS011;23531;50.122;8.644;2022-08-18T14:28:55;11.63;;;10.57;;
37693;SDS011;23531;50.122;8.644;2022-08-18T14:30:57;13.35;;;12.25;;
37693;SDS011;23531;50.122;8.644;2022-08-18T14:33:01;14.48;;;11.98;;
37693;SDS011;23531;50.122;8.644;2022-08-18T14:35:07;12.80;;;11.60;;
37693;SDS011;23531;50.122;8.644;2022-08-18T14:37:09;13.23;;;11.90;;
37693;SDS011;23531;50.122;8.644;2022-08-18T14:39:11;12.30;;;11.13;;
37693;SDS011;23531;50.122;8.644;2022-08-18T14:41:12;13.68;;;11.55;;
37693;SDS011;23531;50.122;8.644;2022-08-18T14:43:17;12.13;;;10.93;;
37693;SDS011;23531;50.122;8.644;2022-08-18T14:45:21;13.00;;;11.07;;
37693;SDS011;23531;50.122;8.644;2022-08-18T14:47:24;12.25;;;11.02;;
37693;SDS011;23531;50.122;8.644;2022-08-18T14:49:27;11.48;;;10.35;;